createdAt,value
2023-04-27T00:04:51.260Z,5.30
2023-04-27T00:09:48.263Z,5.40
2023-04-27T00:14:45.869Z,4.78
2023-04-27T00:19:42.567Z,3.88
2023-04-27T00:24:41.064Z,3.90
2023-04-27T00:29:42.084Z,4.13
2023-04-27T00:34:39.637Z,4.05
2023-04-27T00:39:36.400Z,3.67
2023-04-27T00:44:33.310Z,3.45
2023-04-27T00:49:30.728Z,3.97
2023-04-27T00:54:29.110Z,3.67
2023-04-27T00:59:26.105Z,4.28
2023-04-27T01:04:23.550Z,4.15
2023-04-27T01:09:21.267Z,4.97
2023-04-27T01:14:20.718Z,4.18
2023-04-27T01:19:17.520Z,4.40
2023-04-27T01:24:15.019Z,4.22
2023-04-27T01:29:12.228Z,3.55
2023-04-27T01:34:09.225Z,4.78
2023-04-27T01:39:08.726Z,4.95
2023-04-27T01:44:06.864Z,5.05
2023-04-27T01:49:05.000Z,4.72
2023-04-27T01:54:01.753Z,4.47
2023-04-27T01:58:58.501Z,5.10
2023-04-27T02:03:56.330Z,4.20
2023-04-27T02:08:53.319Z,5.93
2023-04-27T02:13:50.165Z,4.13
2023-04-27T02:18:47.140Z,3.92
2023-04-27T02:23:44.635Z,4.00
2023-04-27T02:28:41.337Z,4.75
2023-04-27T02:33:38.660Z,4.57
2023-04-27T02:38:35.443Z,4.60
2023-04-27T02:43:33.837Z,4.05
2023-04-27T02:48:30.751Z,4.53
2023-04-27T02:53:27.835Z,4.40
2023-04-27T02:58:25.502Z,4.35
2023-04-27T03:03:23.597Z,4.38
2023-04-27T03:08:20.612Z,4.50
2023-04-27T03:13:17.414Z,3.72
2023-04-27T03:18:14.158Z,3.88
2023-04-27T03:23:11.949Z,4.10
2023-04-27T03:28:08.802Z,3.65
2023-04-27T03:33:05.692Z,4.57
2023-04-27T03:38:02.634Z,4.00
2023-04-27T03:43:00.500Z,4.07
2023-04-27T03:47:57.898Z,4.03
2023-04-27T03:52:55.458Z,4.43
2023-04-27T03:57:52.328Z,4.70
2023-04-27T04:02:52.937Z,3.90
2023-04-27T04:07:50.224Z,4.53
2023-04-27T04:12:47.245Z,4.55
2023-04-27T04:17:44.284Z,4.72
2023-04-27T04:22:42.603Z,5.30
2023-04-27T04:27:39.385Z,4.65
2023-04-27T04:32:37.659Z,5.18
2023-04-27T04:37:36.742Z,4.57
2023-04-27T04:42:34.877Z,5.40
2023-04-27T04:47:32.017Z,5.53
2023-04-27T04:52:29.018Z,5.25
2023-04-27T04:57:25.934Z,4.35
2023-04-27T05:02:25.992Z,4.80
2023-04-27T05:07:24.938Z,4.65
2023-04-27T05:12:22.001Z,4.68
2023-04-27T05:17:18.832Z,4.35
2023-04-27T05:22:16.424Z,5.45
2023-04-27T05:27:13.724Z,3.75
2023-04-27T05:32:10.702Z,5.32
2023-04-27T05:37:07.983Z,4.07
2023-04-27T05:42:06.063Z,4.38
2023-04-27T05:47:03.140Z,4.50
2023-04-27T05:52:00.235Z,3.85
2023-04-27T05:56:57.164Z,4.07
2023-04-27T06:01:55.165Z,3.70
2023-04-27T06:06:52.075Z,3.65
2023-04-27T06:11:49.070Z,3.60
2023-04-27T06:16:46.041Z,4.60
2023-04-27T06:21:43.621Z,4.32
2023-04-27T06:26:40.677Z,3.58
2023-04-27T06:31:37.610Z,3.47
2023-04-27T06:36:34.688Z,3.75
2023-04-27T06:41:33.262Z,4.13
2023-04-27T06:46:30.473Z,5.15
2023-04-27T06:51:27.820Z,3.67
2023-04-27T06:56:24.552Z,4.55
2023-04-27T07:01:22.063Z,4.30
2023-04-27T07:06:25.420Z,4.20
2023-04-27T07:11:22.375Z,3.70
2023-04-27T07:16:19.514Z,3.60
2023-04-27T07:21:16.941Z,5.47
2023-04-27T07:26:14.026Z,4.25
2023-04-27T07:31:19.806Z,3.92
2023-04-27T07:36:17.523Z,3.72
2023-04-27T07:41:15.055Z,3.65
2023-04-27T07:46:12.490Z,4.63
2023-04-27T07:51:09.594Z,3.83
2023-04-27T07:56:08.099Z,3.65
2023-04-27T08:01:06.028Z,4.18
2023-04-27T08:06:04.894Z,4.07
2023-04-27T08:11:02.749Z,3.30
2023-04-27T08:16:00.605Z,4.65
2023-04-27T08:20:57.853Z,3.88
2023-04-27T08:25:54.890Z,3.67
2023-04-27T08:30:52.568Z,4.75
2023-04-27T08:35:50.483Z,4.28
2023-04-27T08:40:48.421Z,5.03
2023-04-27T08:45:49.589Z,5.57
2023-04-27T08:50:50.304Z,4.85
2023-04-27T08:55:47.945Z,5.22
2023-04-27T09:00:45.493Z,5.22
2023-04-27T09:05:56.408Z,5.43
2023-04-27T09:10:58.193Z,4.55
2023-04-27T09:15:55.068Z,4.15
2023-04-27T09:20:53.351Z,5.03
2023-04-27T09:25:50.209Z,4.90
2023-04-27T09:30:53.816Z,4.10
2023-04-27T09:35:51.057Z,4.72
2023-04-27T09:40:48.918Z,4.13
2023-04-27T09:45:46.113Z,4.55
2023-04-27T09:50:44.844Z,4.43
2023-04-27T09:55:48.223Z,5.10
2023-04-27T10:00:59.818Z,4.45
2023-04-27T10:06:41.397Z,3.40
2023-04-27T10:11:39.792Z,3.95
2023-04-27T10:16:45.320Z,4.43
2023-04-27T10:21:59.923Z,4.20
2023-04-27T10:27:04.916Z,3.95
2023-04-27T10:32:25.703Z,4.55
2023-04-27T10:37:39.352Z,3.13
2023-04-27T10:42:38.226Z,3.78
2023-04-27T10:47:40.892Z,3.28
2023-04-27T10:52:41.798Z,3.35
2023-04-27T10:57:49.368Z,3.33
2023-04-27T11:02:46.746Z,2.63
2023-04-27T11:07:44.473Z,2.60
2023-04-27T11:12:41.742Z,2.80
2023-04-27T11:17:38.660Z,2.22
2023-04-27T11:22:45.569Z,2.63
2023-04-27T11:27:42.460Z,2.22
2023-04-27T11:32:39.320Z,2.75
2023-04-27T11:37:36.969Z,2.17
2023-04-27T11:42:34.976Z,2.42
2023-04-27T11:47:35.028Z,3.00
2023-04-27T11:52:32.939Z,2.20
2023-04-27T11:57:35.380Z,3.00
2023-04-27T12:02:32.814Z,3.53
2023-04-27T12:07:30.984Z,3.33
2023-04-27T12:12:28.104Z,2.78
2023-04-27T12:17:26.218Z,2.42
2023-04-27T12:22:23.247Z,2.63
2023-04-27T12:27:20.177Z,2.60
2023-04-27T12:32:17.232Z,2.50
2023-04-27T12:37:15.086Z,2.60
2023-04-27T12:42:12.079Z,2.65
2023-04-27T12:47:20.026Z,2.38
2023-04-27T12:52:25.892Z,2.30
2023-04-27T12:57:22.769Z,2.90
2023-04-27T13:02:19.827Z,2.70
2023-04-27T13:07:18.931Z,1.85
2023-04-27T13:12:17.614Z,2.15
2023-04-27T13:17:14.472Z,2.40
2023-04-27T13:22:11.493Z,2.70
2023-04-27T13:27:12.199Z,2.65
2023-04-27T13:32:09.972Z,2.80
2023-04-27T13:37:07.291Z,2.88
2023-04-27T13:42:05.600Z,3.60
2023-04-27T13:47:02.550Z,2.65
2023-04-27T13:52:00.561Z,2.35
2023-04-27T13:56:57.466Z,3.13
2023-04-27T14:01:54.421Z,2.58
2023-04-27T14:06:51.398Z,3.65
2023-04-27T14:11:56.375Z,3.00
2023-04-27T14:16:54.470Z,2.50
2023-04-27T14:21:51.311Z,2.75
2023-04-27T14:26:49.712Z,2.90
2023-04-27T14:31:47.102Z,2.53
2023-04-27T14:36:43.985Z,2.78
2023-04-27T14:41:40.871Z,2.67
2023-04-27T14:46:41.471Z,2.45
2023-04-27T14:51:38.469Z,2.17
2023-04-27T14:56:36.416Z,3.20
2023-04-27T15:01:33.488Z,2.50
2023-04-27T15:06:32.537Z,2.33
2023-04-27T15:11:33.450Z,2.83
2023-04-27T15:16:30.477Z,3.05
2023-04-27T15:21:30.106Z,2.97
2023-04-27T15:26:27.839Z,2.75
2023-04-27T15:31:24.764Z,3.25
2023-04-27T15:36:22.749Z,2.67
2023-04-27T15:41:19.817Z,3.45
2023-04-27T15:46:18.298Z,2.60
2023-04-27T15:51:15.197Z,3.03
2023-04-27T15:56:12.056Z,3.90
2023-04-27T16:01:09.269Z,2.67
2023-04-27T16:06:07.664Z,2.42
2023-04-27T16:11:05.131Z,3.97
2023-04-27T16:16:03.774Z,2.65
2023-04-27T16:21:00.836Z,2.50
2023-04-27T16:25:58.644Z,2.92
2023-04-27T16:30:55.535Z,2.70
2023-04-27T16:35:52.339Z,4.93
2023-04-27T16:40:49.430Z,2.97
2023-04-27T16:45:46.979Z,3.28
2023-04-27T16:50:44.102Z,3.47
2023-04-27T16:55:41.016Z,3.47
2023-04-27T17:00:38.975Z,3.78
2023-04-27T17:05:37.113Z,3.40
2023-04-27T17:10:36.387Z,2.95
2023-04-27T17:15:33.524Z,2.67
2023-04-27T17:20:30.557Z,2.92
2023-04-27T17:25:28.334Z,2.92
2023-04-27T17:30:25.078Z,4.00
2023-04-27T17:35:24.830Z,3.38
2023-04-27T17:40:22.278Z,3.28
2023-04-27T17:45:20.286Z,3.35
2023-04-27T17:50:17.151Z,4.00
2023-04-27T17:55:16.647Z,3.55
2023-04-27T18:00:14.777Z,4.13
2023-04-27T18:05:12.407Z,3.75
2023-04-27T18:10:09.672Z,4.45
2023-04-27T18:15:09.692Z,5.30
2023-04-27T18:20:09.852Z,3.97
2023-04-27T18:25:10.167Z,3.83
2023-04-27T18:30:08.299Z,3.50
2023-04-27T18:35:06.391Z,3.50
2023-04-27T18:40:05.251Z,4.93
2023-04-27T18:45:02.916Z,2.90
2023-04-27T18:49:59.740Z,3.63
2023-04-27T18:54:56.560Z,3.30
2023-04-27T18:59:53.385Z,2.90
2023-04-27T19:04:56.839Z,3.25
2023-04-27T19:09:59.522Z,3.97
2023-04-27T19:14:59.112Z,4.35
2023-04-27T19:20:00.092Z,4.65
2023-04-27T19:24:58.060Z,4.10
2023-04-27T19:29:56.551Z,3.65
2023-04-27T19:34:53.714Z,4.18
2023-04-27T19:39:51.235Z,4.43
2023-04-27T19:44:48.004Z,4.32
2023-04-27T19:49:45.066Z,4.65
2023-04-27T19:54:43.676Z,5.18
2023-04-27T19:59:45.328Z,5.80
2023-04-27T20:04:42.439Z,5.05
2023-04-27T20:09:39.644Z,4.07
2023-04-27T20:14:41.859Z,3.53
2023-04-27T20:19:40.453Z,3.65
2023-04-27T20:24:38.124Z,3.50
2023-04-27T20:29:35.822Z,4.03
2023-04-27T20:34:32.545Z,6.18
2023-04-27T20:39:30.046Z,5.00
2023-04-27T20:44:27.252Z,5.57
2023-04-27T20:49:34.184Z,6.30
2023-04-27T20:54:32.673Z,6.00
2023-04-27T20:59:29.561Z,6.10
2023-04-27T21:04:26.564Z,6.65
2023-04-27T21:09:23.685Z,8.65
2023-04-27T21:14:21.595Z,7.03
2023-04-27T21:19:18.602Z,6.32
2023-04-27T21:24:15.549Z,5.95
2023-04-27T21:29:12.339Z,5.60
2023-04-27T21:34:09.866Z,5.97
2023-04-27T21:39:06.675Z,4.90
2023-04-27T21:44:03.646Z,4.32
2023-04-27T21:49:00.460Z,3.85
2023-04-27T21:53:58.417Z,4.72
2023-04-27T21:58:55.368Z,3.70
2023-04-27T22:03:52.461Z,3.28
2023-04-27T22:08:49.516Z,3.45
2023-04-27T22:13:46.964Z,4.50
2023-04-27T22:18:43.780Z,6.30
2023-04-27T22:23:40.819Z,3.97
2023-04-27T22:28:37.528Z,3.75
2023-04-27T22:33:36.613Z,4.28
2023-04-27T22:38:33.664Z,3.47
2023-04-27T22:43:30.453Z,4.15
2023-04-27T22:48:27.325Z,4.40
2023-04-27T22:53:25.296Z,3.80
2023-04-27T22:58:22.044Z,3.85
2023-04-27T23:03:19.013Z,3.78
2023-04-27T23:08:16.282Z,4.63
2023-04-27T23:13:14.075Z,3.70
2023-04-27T23:18:10.996Z,3.67
2023-04-27T23:23:07.864Z,3.40
2023-04-27T23:28:04.785Z,4.75
2023-04-27T23:33:02.421Z,5.28
2023-04-27T23:37:59.319Z,3.90
2023-04-27T23:42:56.126Z,3.42
2023-04-27T23:47:53.015Z,3.75
2023-04-27T23:52:50.658Z,3.72
2023-04-27T23:57:51.068Z,3.55
